EGPH/EDI METAR and TAF weather

Enter ICAO airport designator
Station Type Date Time Source
EGPH METAR 2021/07/26 16:50 UTC NOAA

EGPH 261650Z 27008KT CAVOK 25/15 Q1006


Station Type Date Time Source
EGPH Decoded METAR 2021/07/26 16:50 UTC NOAA

Edinburgh Airport, United Kingdom (EGPH) 55-57N 003-21W 0M
Jul 26, 2021 - 12:50 PM EDT / 2021.07.26 1650 UTC
Wind: from the W (270 degrees) at 9 MPH (8 KT):0
Visibility: greater than 7 mile(s):0
Temperature: 77 F (25 C)
Dew Point: 59 F (15 C)
Relative Humidity: 53%
Pressure (altimeter): 29.71 in. Hg (1006 hPa)
ob: EGPH 261650Z 27008KT CAVOK 25/15 Q1006
cycle: 17

Station Type Date Time Source
EGPH TAF 2021/07/26 12:06 UTC NOAA

TAF EGPH 261100Z 2612/2712 27006KT 9999 SCT025
TEMPO 2612/2620 7000 -SHRA PROB30
TEMPO 2612/2619 3000 +SHRA BKN014 BKN030CB PROB30
TEMPO 2703/2712 7000 BKN008
BECMG 2709/2712 11010KT

Example: see airport list